sensor_id;sensor_type;location;lat;lon;timestamp;temperature;humidity
52899;DHT22;38763;53.096;6.062;2023-09-08T00:00:41;19.50;99.90
52899;DHT22;38763;53.096;6.062;2023-09-08T00:03:07;19.40;99.90
52899;DHT22;38763;53.096;6.062;2023-09-08T00:05:32;19.40;99.90
52899;DHT22;38763;53.096;6.062;2023-09-08T00:07:58;19.40;99.90
52899;DHT22;38763;53.096;6.062;2023-09-08T00:10:23;19.30;99.90
52899;DHT22;38763;53.096;6.062;2023-09-08T00:12:49;19.30;99.90
52899;DHT22;38763;53.096;6.062;2023-09-08T00:15:14;19.30;99.90
52899;DHT22;38763;53.096;6.062;2023-09-08T00:17:40;19.20;99.90
52899;DHT22;38763;53.096;6.062;2023-09-08T00:20:06;19.20;99.90
52899;DHT22;38763;53.096;6.062;2023-09-08T00:22:37;19.20;99.90
52899;DHT22;38763;53.096;6.062;2023-09-08T00:25:03;19.20;99.90
52899;DHT22;38763;53.096;6.062;2023-09-08T00:27:30;19.20;99.90
52899;DHT22;38763;53.096;6.062;2023-09-08T00:29:56;19.10;99.90
52899;DHT22;38763;53.096;6.062;2023-09-08T00:32:21;19.10;99.90
52899;DHT22;38763;53.096;6.062;2023-09-08T00:34:47;19.00;99.90
52899;DHT22;38763;53.096;6.062;2023-09-08T00:37:12;19.10;99.90
52899;DHT22;38763;53.096;6.062;2023-09-08T00:39:38;19.10;99.90
52899;DHT22;38763;53.096;6.062;2023-09-08T00:42:04;19.00;99.90
52899;DHT22;38763;53.096;6.062;2023-09-08T00:44:30;19.00;99.90
52899;DHT22;38763;53.096;6.062;2023-09-08T00:46:56;19.00;99.90
52899;DHT22;38763;53.096;6.062;2023-09-08T00:49:22;19.00;99.90
52899;DHT22;38763;53.096;6.062;2023-09-08T00:51:48;18.90;99.90
52899;DHT22;38763;53.096;6.062;2023-09-08T00:54:14;18.90;99.90
52899;DHT22;38763;53.096;6.062;2023-09-08T00:56:40;18.90;99.90
52899;DHT22;38763;53.096;6.062;2023-09-08T00:59:07;18.80;99.90
52899;DHT22;38763;53.096;6.062;2023-09-08T01:01:33;18.80;99.90
52899;DHT22;38763;53.096;6.062;2023-09-08T01:04:01;18.80;99.90
52899;DHT22;38763;53.096;6.062;2023-09-08T01:06:27;18.80;99.90
52899;DHT22;38763;53.096;6.062;2023-09-08T01:08:53;18.80;99.90
52899;DHT22;38763;53.096;6.062;2023-09-08T01:11:20;18.70;99.90
52899;DHT22;38763;53.096;6.062;2023-09-08T01:13:45;18.70;99.90
52899;DHT22;38763;53.096;6.062;2023-09-08T01:16:11;18.70;99.90
52899;DHT22;38763;53.096;6.062;2023-09-08T01:18:37;18.60;99.90
52899;DHT22;38763;53.096;6.062;2023-09-08T01:23:56;18.60;99.90
52899;DHT22;38763;53.096;6.062;2023-09-08T01:26:28;18.60;99.90
52899;DHT22;38763;53.096;6.062;2023-09-08T01:28:57;18.50;99.90
52899;DHT22;38763;53.096;6.062;2023-09-08T01:31:24;18.50;99.90
52899;DHT22;38763;53.096;6.062;2023-09-08T01:33:50;18.50;99.90
52899;DHT22;38763;53.096;6.062;2023-09-08T01:36:16;18.40;99.90
52899;DHT22;38763;53.096;6.062;2023-09-08T01:38:42;18.40;99.90
52899;DHT22;38763;53.096;6.062;2023-09-08T01:41:07;18.40;99.90
52899;DHT22;38763;53.096;6.062;2023-09-08T01:43:33;18.40;99.90
52899;DHT22;38763;53.096;6.062;2023-09-08T01:45:58;18.40;99.90
52899;DHT22;38763;53.096;6.062;2023-09-08T01:48:24;18.30;99.90
52899;DHT22;38763;53.096;6.062;2023-09-08T01:50:50;18.30;99.90
52899;DHT22;38763;53.096;6.062;2023-09-08T01:53:15;18.30;99.90
52899;DHT22;38763;53.096;6.062;2023-09-08T01:55:41;18.20;99.90
52899;DHT22;38763;53.096;6.062;2023-09-08T01:58:07;18.20;99.90
52899;DHT22;38763;53.096;6.062;2023-09-08T02:00:32;18.20;99.90
52899;DHT22;38763;53.096;6.062;2023-09-08T02:02:58;18.20;99.90
52899;DHT22;38763;53.096;6.062;2023-09-08T02:05:23;18.20;99.90
52899;DHT22;38763;53.096;6.062;2023-09-08T02:07:51;18.10;99.90
52899;DHT22;38763;53.096;6.062;2023-09-08T02:10:16;18.10;99.90
52899;DHT22;38763;53.096;6.062;2023-09-08T02:12:42;18.00;99.90
52899;DHT22;38763;53.096;6.062;2023-09-08T02:15:08;18.10;99.90
52899;DHT22;38763;53.096;6.062;2023-09-08T02:17:34;18.00;99.90
52899;DHT22;38763;53.096;6.062;2023-09-08T02:20:00;17.90;99.90
52899;DHT22;38763;53.096;6.062;2023-09-08T02:22:25;18.00;99.90
52899;DHT22;38763;53.096;6.062;2023-09-08T02:24:51;17.90;99.90
52899;DHT22;38763;53.096;6.062;2023-09-08T02:27:18;17.90;99.90
52899;DHT22;38763;53.096;6.062;2023-09-08T02:29:44;17.80;99.90
52899;DHT22;38763;53.096;6.062;2023-09-08T02:32:09;17.80;99.90
52899;DHT22;38763;53.096;6.062;2023-09-08T02:34:36;17.80;99.90
52899;DHT22;38763;53.096;6.062;2023-09-08T02:37:04;17.80;99.90
52899;DHT22;38763;53.096;6.062;2023-09-08T02:39:30;17.80;99.90
52899;DHT22;38763;53.096;6.062;2023-09-08T02:41:56;17.80;99.90
52899;DHT22;38763;53.096;6.062;2023-09-08T02:44:21;17.70;99.90
52899;DHT22;38763;53.096;6.062;2023-09-08T02:46:52;17.70;99.90
52899;DHT22;38763;53.096;6.062;2023-09-08T02:49:17;17.70;99.90
52899;DHT22;38763;53.096;6.062;2023-09-08T02:51:43;17.70;99.90
52899;DHT22;38763;53.096;6.062;2023-09-08T02:54:08;17.60;99.90
52899;DHT22;38763;53.096;6.062;2023-09-08T02:56:34;17.60;99.90
52899;DHT22;38763;53.096;6.062;2023-09-08T02:59:00;17.60;99.90
52899;DHT22;38763;53.096;6.062;2023-09-08T03:01:25;17.60;99.90
52899;DHT22;38763;53.096;6.062;2023-09-08T03:03:51;17.60;99.90
52899;DHT22;38763;53.096;6.062;2023-09-08T03:06:19;17.50;99.90
52899;DHT22;38763;53.096;6.062;2023-09-08T03:08:45;17.50;99.90
52899;DHT22;38763;53.096;6.062;2023-09-08T03:11:12;17.50;99.90
52899;DHT22;38763;53.096;6.062;2023-09-08T03:13:38;17.50;99.90
52899;DHT22;38763;53.096;6.062;2023-09-08T03:16:08;17.40;99.90
52899;DHT22;38763;53.096;6.062;2023-09-08T03:18:34;17.40;99.90
52899;DHT22;38763;53.096;6.062;2023-09-08T03:21:05;17.40;99.90
52899;DHT22;38763;53.096;6.062;2023-09-08T03:23:40;17.40;99.90
52899;DHT22;38763;53.096;6.062;2023-09-08T03:26:07;17.40;99.90
52899;DHT22;38763;53.096;6.062;2023-09-08T03:28:34;17.40;99.90
52899;DHT22;38763;53.096;6.062;2023-09-08T03:31:01;17.40;99.90
52899;DHT22;38763;53.096;6.062;2023-09-08T03:33:27;17.30;99.90
52899;DHT22;38763;53.096;6.062;2023-09-08T03:35:52;17.30;99.90
52899;DHT22;38763;53.096;6.062;2023-09-08T03:38:18;17.30;99.90
52899;DHT22;38763;53.096;6.062;2023-09-08T03:40:44;17.30;99.90
52899;DHT22;38763;53.096;6.062;2023-09-08T03:43:10;17.30;99.90
52899;DHT22;38763;53.096;6.062;2023-09-08T03:45:35;17.30;99.90
52899;DHT22;38763;53.096;6.062;2023-09-08T03:48:01;17.30;99.90
52899;DHT22;38763;53.096;6.062;2023-09-08T03:50:27;17.30;99.90
52899;DHT22;38763;53.096;6.062;2023-09-08T03:52:52;17.30;99.90
52899;DHT22;38763;53.096;6.062;2023-09-08T03:55:19;17.20;99.90
52899;DHT22;38763;53.096;6.062;2023-09-08T03:57:45;17.20;99.90
52899;DHT22;38763;53.096;6.062;2023-09-08T04:00:11;17.20;99.90
52899;DHT22;38763;53.096;6.062;2023-09-08T04:02:37;17.20;99.90
52899;DHT22;38763;53.096;6.062;2023-09-08T04:05:03;17.20;99.90
52899;DHT22;38763;53.096;6.062;2023-09-08T04:07:28;17.20;99.90
52899;DHT22;38763;53.096;6.062;2023-09-08T04:09:54;17.10;99.90
52899;DHT22;38763;53.096;6.062;2023-09-08T04:12:20;17.20;99.90
52899;DHT22;38763;53.096;6.062;2023-09-08T04:14:45;17.10;99.90
52899;DHT22;38763;53.096;6.062;2023-09-08T04:17:11;17.10;99.90
52899;DHT22;38763;53.096;6.062;2023-09-08T04:19:36;17.10;99.90
52899;DHT22;38763;53.096;6.062;2023-09-08T04:22:02;17.10;99.90
52899;DHT22;38763;53.096;6.062;2023-09-08T04:24:28;17.10;99.90
52899;DHT22;38763;53.096;6.062;2023-09-08T04:26:54;17.10;99.90
52899;DHT22;38763;53.096;6.062;2023-09-08T04:29:19;17.00;99.90
52899;DHT22;38763;53.096;6.062;2023-09-08T04:31:45;17.00;99.90
52899;DHT22;38763;53.096;6.062;2023-09-08T04:34:11;17.00;99.90
52899;DHT22;38763;53.096;6.062;2023-09-08T04:36:37;17.00;99.90
52899;DHT22;38763;53.096;6.062;2023-09-08T04:39:03;16.90;99.90
52899;DHT22;38763;53.096;6.062;2023-09-08T04:41:28;16.90;99.90
52899;DHT22;38763;53.096;6.062;2023-09-08T04:43:54;16.90;99.90
52899;DHT22;38763;53.096;6.062;2023-09-08T04:46:20;16.90;99.90
52899;DHT22;38763;53.096;6.062;2023-09-08T04:48:46;16.90;99.90
52899;DHT22;38763;53.096;6.062;2023-09-08T04:51:12;16.90;99.90
52899;DHT22;38763;53.096;6.062;2023-09-08T04:53:37;16.70;99.90
52899;DHT22;38763;53.096;6.062;2023-09-08T04:56:03;16.80;99.90
52899;DHT22;38763;53.096;6.062;2023-09-08T04:58:29;16.80;99.90
52899;DHT22;38763;53.096;6.062;2023-09-08T05:00:54;16.80;99.90
52899;DHT22;38763;53.096;6.062;2023-09-08T05:03:20;16.80;99.90
52899;DHT22;38763;53.096;6.062;2023-09-08T05:05:46;16.80;99.90
52899;DHT22;38763;53.096;6.062;2023-09-08T05:08:11;16.90;99.90
52899;DHT22;38763;53.096;6.062;2023-09-08T05:10:37;16.90;99.90
52899;DHT22;38763;53.096;6.062;2023-09-08T05:13:03;16.90;99.90
52899;DHT22;38763;53.096;6.062;2023-09-08T05:15:28;16.80;99.90
52899;DHT22;38763;53.096;6.062;2023-09-08T05:17:56;16.90;99.90
52899;DHT22;38763;53.096;6.062;2023-09-08T05:20:21;16.90;99.90
52899;DHT22;38763;53.096;6.062;2023-09-08T05:22:47;16.90;99.90
52899;DHT22;38763;53.096;6.062;2023-09-08T05:25:13;16.90;99.90
52899;DHT22;38763;53.096;6.062;2023-09-08T05:27:38;16.80;99.90
52899;DHT22;38763;53.096;6.062;2023-09-08T05:30:05;16.80;99.90
52899;DHT22;38763;53.096;6.062;2023-09-08T05:32:30;16.80;99.90
52899;DHT22;38763;53.096;6.062;2023-09-08T05:34:56;16.80;99.90
52899;DHT22;38763;53.096;6.062;2023-09-08T05:37:22;16.80;99.90
52899;DHT22;38763;53.096;6.062;2023-09-08T05:39:48;16.80;99.90
52899;DHT22;38763;53.096;6.062;2023-09-08T05:42:13;16.80;99.90
52899;DHT22;38763;53.096;6.062;2023-09-08T05:44:39;16.80;99.90
52899;DHT22;38763;53.096;6.062;2023-09-08T05:47:05;16.90;99.90
52899;DHT22;38763;53.096;6.062;2023-09-08T05:49:31;16.90;99.90
52899;DHT22;38763;53.096;6.062;2023-09-08T05:51:56;16.90;99.90
52899;DHT22;38763;53.096;6.062;2023-09-08T05:54:22;17.00;99.90
52899;DHT22;38763;53.096;6.062;2023-09-08T05:56:48;17.10;99.90
52899;DHT22;38763;53.096;6.062;2023-09-08T05:59:13;17.10;99.90
52899;DHT22;38763;53.096;6.062;2023-09-08T06:01:39;17.10;99.90
52899;DHT22;38763;53.096;6.062;2023-09-08T06:04:05;17.10;99.90
52899;DHT22;38763;53.096;6.062;2023-09-08T06:06:30;17.30;99.90
52899;DHT22;38763;53.096;6.062;2023-09-08T06:08:56;17.30;99.90
52899;DHT22;38763;53.096;6.062;2023-09-08T06:11:22;17.40;99.90
52899;DHT22;38763;53.096;6.062;2023-09-08T06:13:47;17.40;99.90
52899;DHT22;38763;53.096;6.062;2023-09-08T06:16:13;17.40;99.90
52899;DHT22;38763;53.096;6.062;2023-09-08T06:18:39;17.40;99.90
52899;DHT22;38763;53.096;6.062;2023-09-08T06:21:09;17.50;99.90
52899;DHT22;38763;53.096;6.062;2023-09-08T06:23:35;17.50;99.90
52899;DHT22;38763;53.096;6.062;2023-09-08T06:26:01;17.60;99.90
52899;DHT22;38763;53.096;6.062;2023-09-08T06:28:28;17.60;99.90
52899;DHT22;38763;53.096;6.062;2023-09-08T06:30:54;17.70;99.90
52899;DHT22;38763;53.096;6.062;2023-09-08T06:33:20;17.70;99.90
52899;DHT22;38763;53.096;6.062;2023-09-08T06:35:46;17.80;99.90
52899;DHT22;38763;53.096;6.062;2023-09-08T06:38:12;17.90;99.90
52899;DHT22;38763;53.096;6.062;2023-09-08T06:40:39;17.90;99.90
52899;DHT22;38763;53.096;6.062;2023-09-08T06:43:04;18.00;99.90
52899;DHT22;38763;53.096;6.062;2023-09-08T06:45:30;18.00;99.90
52899;DHT22;38763;53.096;6.062;2023-09-08T06:47:56;18.10;99.90
52899;DHT22;38763;53.096;6.062;2023-09-08T06:50:22;18.20;99.90
52899;DHT22;38763;53.096;6.062;2023-09-08T06:52:49;18.30;99.90
52899;DHT22;38763;53.096;6.062;2023-09-08T06:55:15;18.40;99.90
52899;DHT22;38763;53.096;6.062;2023-09-08T06:57:42;18.50;99.90
52899;DHT22;38763;53.096;6.062;2023-09-08T07:00:08;18.60;99.90
52899;DHT22;38763;53.096;6.062;2023-09-08T07:02:37;18.60;99.90
52899;DHT22;38763;53.096;6.062;2023-09-08T07:05:03;18.70;99.90
52899;DHT22;38763;53.096;6.062;2023-09-08T07:07:36;18.80;99.90
52899;DHT22;38763;53.096;6.062;2023-09-08T07:10:05;18.90;99.90
52899;DHT22;38763;53.096;6.062;2023-09-08T07:12:31;19.00;99.90
52899;DHT22;38763;53.096;6.062;2023-09-08T07:14:57;19.00;99.90
52899;DHT22;38763;53.096;6.062;2023-09-08T07:17:23;19.10;99.90
52899;DHT22;38763;53.096;6.062;2023-09-08T07:19:49;19.10;99.90
52899;DHT22;38763;53.096;6.062;2023-09-08T07:22:15;19.20;99.90
52899;DHT22;38763;53.096;6.062;2023-09-08T07:24:41;19.30;99.90
52899;DHT22;38763;53.096;6.062;2023-09-08T07:27:07;19.40;99.90
52899;DHT22;38763;53.096;6.062;2023-09-08T07:29:33;19.50;99.90
52899;DHT22;38763;53.096;6.062;2023-09-08T07:31:59;19.60;99.90
52899;DHT22;38763;53.096;6.062;2023-09-08T07:34:25;19.60;99.90
52899;DHT22;38763;53.096;6.062;2023-09-08T07:36:50;19.70;99.90
52899;DHT22;38763;53.096;6.062;2023-09-08T07:39:16;19.70;99.90
52899;DHT22;38763;53.096;6.062;2023-09-08T07:41:41;19.80;99.90
52899;DHT22;38763;53.096;6.062;2023-09-08T07:44:07;19.90;99.90
52899;DHT22;38763;53.096;6.062;2023-09-08T07:46:33;20.10;99.90
52899;DHT22;38763;53.096;6.062;2023-09-08T07:48:59;20.20;99.90
52899;DHT22;38763;53.096;6.062;2023-09-08T07:51:26;20.20;99.90
52899;DHT22;38763;53.096;6.062;2023-09-08T07:53:53;20.40;99.90
52899;DHT22;38763;53.096;6.062;2023-09-08T07:56:19;20.40;99.90
52899;DHT22;38763;53.096;6.062;2023-09-08T07:58:44;20.50;99.90
52899;DHT22;38763;53.096;6.062;2023-09-08T08:01:12;20.60;99.90
52899;DHT22;38763;53.096;6.062;2023-09-08T08:03:37;20.70;99.90
52899;DHT22;38763;53.096;6.062;2023-09-08T08:06:03;20.80;99.90
52899;DHT22;38763;53.096;6.062;2023-09-08T08:08:29;20.90;99.90
52899;DHT22;38763;53.096;6.062;2023-09-08T08:10:55;21.00;99.90
52899;DHT22;38763;53.096;6.062;2023-09-08T08:13:21;21.10;99.90
52899;DHT22;38763;53.096;6.062;2023-09-08T08:15:47;21.30;99.90
52899;DHT22;38763;53.096;6.062;2023-09-08T08:18:13;21.40;99.90
52899;DHT22;38763;53.096;6.062;2023-09-08T08:20:39;21.50;99.90
52899;DHT22;38763;53.096;6.062;2023-09-08T08:23:05;21.60;99.90
52899;DHT22;38763;53.096;6.062;2023-09-08T08:25:31;21.70;99.90
52899;DHT22;38763;53.096;6.062;2023-09-08T08:27:58;21.70;99.90
52899;DHT22;38763;53.096;6.062;2023-09-08T08:30:26;21.80;99.90
52899;DHT22;38763;53.096;6.062;2023-09-08T08:32:52;21.90;99.90
52899;DHT22;38763;53.096;6.062;2023-09-08T08:35:19;22.00;99.90
52899;DHT22;38763;53.096;6.062;2023-09-08T08:37:45;22.10;99.90
52899;DHT22;38763;53.096;6.062;2023-09-08T08:40:11;22.30;99.90
52899;DHT22;38763;53.096;6.062;2023-09-08T08:42:41;22.30;99.90
52899;DHT22;38763;53.096;6.062;2023-09-08T08:45:07;22.30;99.90
52899;DHT22;38763;53.096;6.062;2023-09-08T08:47:33;22.50;99.90
52899;DHT22;38763;53.096;6.062;2023-09-08T08:50:00;22.50;99.90
52899;DHT22;38763;53.096;6.062;2023-09-08T08:52:26;22.60;99.90
52899;DHT22;38763;53.096;6.062;2023-09-08T08:54:53;22.70;99.90
52899;DHT22;38763;53.096;6.062;2023-09-08T08:57:20;22.90;99.90
52899;DHT22;38763;53.096;6.062;2023-09-08T08:59:46;23.00;99.90
52899;DHT22;38763;53.096;6.062;2023-09-08T09:02:12;23.00;99.90
52899;DHT22;38763;53.096;6.062;2023-09-08T09:04:40;23.10;99.90
52899;DHT22;38763;53.096;6.062;2023-09-08T09:07:07;23.20;99.90
52899;DHT22;38763;53.096;6.062;2023-09-08T09:09:32;23.40;99.90
52899;DHT22;38763;53.096;6.062;2023-09-08T09:11:58;23.50;99.90
52899;DHT22;38763;53.096;6.062;2023-09-08T09:14:24;23.60;99.90
52899;DHT22;38763;53.096;6.062;2023-09-08T09:16:50;23.70;99.90
52899;DHT22;38763;53.096;6.062;2023-09-08T09:19:23;23.80;99.90
52899;DHT22;38763;53.096;6.062;2023-09-08T09:21:57;23.90;99.90
52899;DHT22;38763;53.096;6.062;2023-09-08T09:27:01;24.10;99.90
52899;DHT22;38763;53.096;6.062;2023-09-08T09:29:28;24.20;99.90
52899;DHT22;38763;53.096;6.062;2023-09-08T09:32:12;24.20;99.90
52899;DHT22;38763;53.096;6.062;2023-09-08T09:34:51;24.30;99.90
52899;DHT22;38763;53.096;6.062;2023-09-08T09:37:19;24.30;99.90
52899;DHT22;38763;53.096;6.062;2023-09-08T09:39:49;24.40;99.90
52899;DHT22;38763;53.096;6.062;2023-09-08T09:42:15;24.40;99.90
52899;DHT22;38763;53.096;6.062;2023-09-08T09:44:41;24.50;99.90
52899;DHT22;38763;53.096;6.062;2023-09-08T09:47:06;24.70;99.90
52899;DHT22;38763;53.096;6.062;2023-09-08T09:49:44;24.80;99.90
52899;DHT22;38763;53.096;6.062;2023-09-08T09:52:19;24.90;99.90
52899;DHT22;38763;53.096;6.062;2023-09-08T09:54:45;24.90;99.90
52899;DHT22;38763;53.096;6.062;2023-09-08T09:57:14;25.10;99.90
52899;DHT22;38763;53.096;6.062;2023-09-08T09:59:43;25.10;99.90
52899;DHT22;38763;53.096;6.062;2023-09-08T10:02:12;25.10;99.90
52899;DHT22;38763;53.096;6.062;2023-09-08T10:04:42;25.30;99.90
52899;DHT22;38763;53.096;6.062;2023-09-08T10:07:08;25.30;99.90
52899;DHT22;38763;53.096;6.062;2023-09-08T10:09:36;25.30;99.90
52899;DHT22;38763;53.096;6.062;2023-09-08T10:12:05;25.50;99.90
52899;DHT22;38763;53.096;6.062;2023-09-08T10:14:36;25.60;99.90
52899;DHT22;38763;53.096;6.062;2023-09-08T10:17:05;25.60;99.90
52899;DHT22;38763;53.096;6.062;2023-09-08T10:19:34;25.70;99.90
52899;DHT22;38763;53.096;6.062;2023-09-08T10:22:11;25.70;99.90
52899;DHT22;38763;53.096;6.062;2023-09-08T10:24:38;25.80;99.90
52899;DHT22;38763;53.096;6.062;2023-09-08T10:27:09;25.80;99.90
52899;DHT22;38763;53.096;6.062;2023-09-08T10:29:36;25.80;99.90
52899;DHT22;38763;53.096;6.062;2023-09-08T10:32:02;25.80;99.90
52899;DHT22;38763;53.096;6.062;2023-09-08T10:34:30;25.80;99.90
52899;DHT22;38763;53.096;6.062;2023-09-08T10:36:56;25.90;99.90
52899;DHT22;38763;53.096;6.062;2023-09-08T10:39:31;26.00;99.90
52899;DHT22;38763;53.096;6.062;2023-09-08T10:47:14;26.30;99.90
52899;DHT22;38763;53.096;6.062;2023-09-08T10:49:40;26.20;99.90
52899;DHT22;38763;53.096;6.062;2023-09-08T10:52:10;26.30;99.90
52899;DHT22;38763;53.096;6.062;2023-09-08T10:54:49;26.40;99.90
52899;DHT22;38763;53.096;6.062;2023-09-08T10:57:21;26.40;99.90
52899;DHT22;38763;53.096;6.062;2023-09-08T10:59:51;26.40;99.90
52899;DHT22;38763;53.096;6.062;2023-09-08T11:05:14;26.50;99.90
52899;DHT22;38763;53.096;6.062;2023-09-08T11:07:42;26.60;99.90
52899;DHT22;38763;53.096;6.062;2023-09-08T11:10:09;26.60;99.90
52899;DHT22;38763;53.096;6.062;2023-09-08T11:12:35;26.60;99.90
52899;DHT22;38763;53.096;6.062;2023-09-08T11:15:06;26.70;99.90
52899;DHT22;38763;53.096;6.062;2023-09-08T11:17:34;26.70;99.90
52899;DHT22;38763;53.096;6.062;2023-09-08T11:20:01;26.70;99.90
52899;DHT22;38763;53.096;6.062;2023-09-08T11:22:34;26.80;99.90
52899;DHT22;38763;53.096;6.062;2023-09-08T11:25:00;26.70;99.90
52899;DHT22;38763;53.096;6.062;2023-09-08T11:27:27;26.80;99.90
52899;DHT22;38763;53.096;6.062;2023-09-08T11:29:54;26.80;99.90
52899;DHT22;38763;53.096;6.062;2023-09-08T11:32:20;26.90;99.90
52899;DHT22;38763;53.096;6.062;2023-09-08T11:34:45;26.90;99.90
52899;DHT22;38763;53.096;6.062;2023-09-08T11:37:12;27.00;99.90
52899;DHT22;38763;53.096;6.062;2023-09-08T11:39:42;26.90;99.90
52899;DHT22;38763;53.096;6.062;2023-09-08T11:42:09;27.00;99.90
52899;DHT22;38763;53.096;6.062;2023-09-08T11:44:36;26.90;99.90
52899;DHT22;38763;53.096;6.062;2023-09-08T11:47:03;26.90;99.90
52899;DHT22;38763;53.096;6.062;2023-09-08T11:52:02;26.90;99.90
52899;DHT22;38763;53.096;6.062;2023-09-08T11:54:28;27.00;99.90
52899;DHT22;38763;53.096;6.062;2023-09-08T11:56:54;27.10;99.90
52899;DHT22;38763;53.096;6.062;2023-09-08T11:59:20;27.10;99.90
52899;DHT22;38763;53.096;6.062;2023-09-08T12:01:46;27.10;99.90
52899;DHT22;38763;53.096;6.062;2023-09-08T12:04:19;27.10;99.90
52899;DHT22;38763;53.096;6.062;2023-09-08T12:06:48;27.20;99.90
52899;DHT22;38763;53.096;6.062;2023-09-08T12:09:15;27.30;99.90
52899;DHT22;38763;53.096;6.062;2023-09-08T12:11:42;27.20;99.90
52899;DHT22;38763;53.096;6.062;2023-09-08T12:14:12;27.20;99.90
52899;DHT22;38763;53.096;6.062;2023-09-08T12:16:38;27.20;99.90
52899;DHT22;38763;53.096;6.062;2023-09-08T12:19:05;27.20;99.90
52899;DHT22;38763;53.096;6.062;2023-09-08T12:21:32;27.20;99.90
52899;DHT22;38763;53.096;6.062;2023-09-08T12:23:58;27.30;99.90
52899;DHT22;38763;53.096;6.062;2023-09-08T12:26:27;27.30;99.90
52899;DHT22;38763;53.096;6.062;2023-09-08T12:28:53;27.30;99.90
52899;DHT22;38763;53.096;6.062;2023-09-08T12:31:18;27.30;99.90
52899;DHT22;38763;53.096;6.062;2023-09-08T12:33:44;27.40;99.90
52899;DHT22;38763;53.096;6.062;2023-09-08T12:36:18;27.40;99.90
52899;DHT22;38763;53.096;6.062;2023-09-08T12:38:48;27.40;99.90
52899;DHT22;38763;53.096;6.062;2023-09-08T12:41:14;27.40;99.90
52899;DHT22;38763;53.096;6.062;2023-09-08T12:43:40;27.30;99.90
52899;DHT22;38763;53.096;6.062;2023-09-08T12:46:06;27.30;99.90
52899;DHT22;38763;53.096;6.062;2023-09-08T12:48:31;27.30;99.90
52899;DHT22;38763;53.096;6.062;2023-09-08T12:50:57;27.30;99.90
52899;DHT22;38763;53.096;6.062;2023-09-08T12:53:23;27.40;99.90
52899;DHT22;38763;53.096;6.062;2023-09-08T12:55:49;27.40;99.90
52899;DHT22;38763;53.096;6.062;2023-09-08T12:58:18;27.40;99.90
52899;DHT22;38763;53.096;6.062;2023-09-08T13:00:44;27.40;99.90
52899;DHT22;38763;53.096;6.062;2023-09-08T13:03:10;27.50;99.90
52899;DHT22;38763;53.096;6.062;2023-09-08T13:05:35;27.50;99.90
52899;DHT22;38763;53.096;6.062;2023-09-08T13:08:04;27.50;99.90
52899;DHT22;38763;53.096;6.062;2023-09-08T13:10:29;27.50;99.90
52899;DHT22;38763;53.096;6.062;2023-09-08T13:12:55;27.50;99.90
52899;DHT22;38763;53.096;6.062;2023-09-08T13:15:21;27.50;99.90
52899;DHT22;38763;53.096;6.062;2023-09-08T13:17:46;27.40;99.90
52899;DHT22;38763;53.096;6.062;2023-09-08T13:20:12;27.40;99.90
52899;DHT22;38763;53.096;6.062;2023-09-08T13:22:38;27.40;99.90
52899;DHT22;38763;53.096;6.062;2023-09-08T13:25:04;27.50;99.90
52899;DHT22;38763;53.096;6.062;2023-09-08T13:27:29;27.40;99.90
52899;DHT22;38763;53.096;6.062;2023-09-08T13:30:11;27.50;99.90
52899;DHT22;38763;53.096;6.062;2023-09-08T13:32:38;27.50;99.90
52899;DHT22;38763;53.096;6.062;2023-09-08T13:35:04;27.50;99.90
52899;DHT22;38763;53.096;6.062;2023-09-08T13:37:30;27.60;99.90
52899;DHT22;38763;53.096;6.062;2023-09-08T13:39:56;27.50;99.90
52899;DHT22;38763;53.096;6.062;2023-09-08T13:42:22;27.50;99.90
52899;DHT22;38763;53.096;6.062;2023-09-08T13:44:48;27.50;99.90
52899;DHT22;38763;53.096;6.062;2023-09-08T13:47:14;27.50;99.90
52899;DHT22;38763;53.096;6.062;2023-09-08T13:49:39;27.40;99.90
52899;DHT22;38763;53.096;6.062;2023-09-08T13:52:05;27.50;99.90
52899;DHT22;38763;53.096;6.062;2023-09-08T13:54:32;27.40;99.90
52899;DHT22;38763;53.096;6.062;2023-09-08T13:57:00;27.40;99.90
52899;DHT22;38763;53.096;6.062;2023-09-08T13:59:27;27.50;99.90
52899;DHT22;38763;53.096;6.062;2023-09-08T14:01:54;27.50;99.90
52899;DHT22;38763;53.096;6.062;2023-09-08T14:04:20;27.50;99.90
52899;DHT22;38763;53.096;6.062;2023-09-08T14:06:46;27.50;99.90
52899;DHT22;38763;53.096;6.062;2023-09-08T14:09:12;27.50;99.90
52899;DHT22;38763;53.096;6.062;2023-09-08T14:11:38;27.50;99.90
52899;DHT22;38763;53.096;6.062;2023-09-08T14:14:04;27.50;99.90
52899;DHT22;38763;53.096;6.062;2023-09-08T14:16:29;27.60;99.90
52899;DHT22;38763;53.096;6.062;2023-09-08T14:18:55;27.50;99.90
52899;DHT22;38763;53.096;6.062;2023-09-08T14:21:21;27.50;99.90
52899;DHT22;38763;53.096;6.062;2023-09-08T14:23:46;27.50;99.90
52899;DHT22;38763;53.096;6.062;2023-09-08T14:26:13;27.50;99.90
52899;DHT22;38763;53.096;6.062;2023-09-08T14:28:39;27.50;99.90
52899;DHT22;38763;53.096;6.062;2023-09-08T14:31:04;27.60;99.90
52899;DHT22;38763;53.096;6.062;2023-09-08T14:33:30;27.50;99.90
52899;DHT22;38763;53.096;6.062;2023-09-08T14:35:56;27.50;99.90
52899;DHT22;38763;53.096;6.062;2023-09-08T14:38:23;27.60;99.90
52899;DHT22;38763;53.096;6.062;2023-09-08T14:41:00;27.50;99.90
52899;DHT22;38763;53.096;6.062;2023-09-08T14:43:27;27.50;99.90
52899;DHT22;38763;53.096;6.062;2023-09-08T14:45:53;27.50;99.90
52899;DHT22;38763;53.096;6.062;2023-09-08T14:48:19;27.50;99.90
52899;DHT22;38763;53.096;6.062;2023-09-08T14:50:45;27.50;99.90
52899;DHT22;38763;53.096;6.062;2023-09-08T14:53:11;27.50;99.90
52899;DHT22;38763;53.096;6.062;2023-09-08T14:55:37;27.50;99.90
52899;DHT22;38763;53.096;6.062;2023-09-08T14:58:03;27.50;99.90
52899;DHT22;38763;53.096;6.062;2023-09-08T15:00:28;27.50;99.90
52899;DHT22;38763;53.096;6.062;2023-09-08T15:02:54;27.40;99.90
52899;DHT22;38763;53.096;6.062;2023-09-08T15:05:19;27.40;99.90
52899;DHT22;38763;53.096;6.062;2023-09-08T15:07:45;27.40;99.90
52899;DHT22;38763;53.096;6.062;2023-09-08T15:10:11;27.30;99.90
52899;DHT22;38763;53.096;6.062;2023-09-08T15:12:37;27.40;99.90
52899;DHT22;38763;53.096;6.062;2023-09-08T15:15:03;27.30;99.90
52899;DHT22;38763;53.096;6.062;2023-09-08T15:17:29;27.30;99.90
52899;DHT22;38763;53.096;6.062;2023-09-08T15:19:55;27.30;99.90
52899;DHT22;38763;53.096;6.062;2023-09-08T15:22:20;27.40;99.90
52899;DHT22;38763;53.096;6.062;2023-09-08T15:24:46;27.30;99.90
52899;DHT22;38763;53.096;6.062;2023-09-08T15:27:11;27.30;99.90
52899;DHT22;38763;53.096;6.062;2023-09-08T15:29:37;27.20;99.90
52899;DHT22;38763;53.096;6.062;2023-09-08T15:32:03;27.20;99.90
52899;DHT22;38763;53.096;6.062;2023-09-08T15:34:29;27.20;99.90
52899;DHT22;38763;53.096;6.062;2023-09-08T15:36:54;27.20;99.90
52899;DHT22;38763;53.096;6.062;2023-09-08T15:39:20;27.20;99.90
52899;DHT22;38763;53.096;6.062;2023-09-08T15:41:46;27.20;99.90